Time;durP1;ratioP1;P1;durP2;ratioP2;P2;SDS_P1;SDS_P2;PMS_P1;PMS_P2;Temp;Humidity;BMP_temperature;BMP_pressure;BME280_temperature;BME280_humidity;BME280_pressure;Samples;Min_cycle;Max_cycle;Signal;HPM_P1;HPM_P2
2021/01/16 00:00:34;;;;;;;18.27;11.27;;;;;;;1.89;68.43;100020.84;4877459;29;20652;-83
2021/01/16 00:03:00;;;;;;;19.88;12.63;;;;;;;1.94;68.42;100019.00;4864795;29;20303;-82
2021/01/16 00:05:29;;;;;;;22.05;13.30;;;;;;;1.96;68.41;100015.41;4865790;29;20227;-82
2021/01/16 00:08:06;;;;;;;19.13;12.25;;;;;;;1.94;68.37;100014.56;4886902;29;20715;-82
2021/01/16 00:10:36;;;;;;;21.75;12.88;;;;;;;2.01;67.73;100013.53;4908578;29;20246;-83
2021/01/16 00:13:03;;;;;;;17.50;12.20;;;;;;;1.84;68.29;100007.66;4901461;29;20211;-81
2021/01/16 00:15:30;;;;;;;22.63;12.18;;;;;;;1.91;67.96;99997.81;4922037;29;20219;-80
2021/01/16 00:18:04;;;;;;;22.38;13.30;;;;;;;1.77;68.73;100008.69;4913585;29;20230;-80
2021/01/16 00:20:32;;;;;;;20.02;12.23;;;;;;;1.97;68.27;100001.25;4884531;29;20280;-80
2021/01/16 00:22:58;;;;;;;19.88;11.73;;;;;;;1.76;68.60;100008.69;4898611;29;20218;-81
2021/01/16 00:25:25;;;;;;;20.80;12.52;;;;;;;1.65;68.70;100005.34;4897528;29;20267;-81
2021/01/16 00:28:21;;;;;;;21.98;12.98;;;;;;;1.76;68.77;100003.41;4890181;29;20251;-81
2021/01/16 00:30:48;;;;;;;18.65;12.13;;;;;;;1.83;68.79;99994.44;4883085;29;20321;-81
2021/01/16 00:33:26;;;;;;;21.23;13.15;;;;;;;1.82;68.58;99993.56;4869279;29;20765;-82
2021/01/16 00:35:54;;;;;;;17.40;11.93;;;;;;;1.89;68.23;99995.22;4874159;29;20226;-81
2021/01/16 00:38:21;;;;;;;21.35;13.38;;;;;;;2.01;67.92;99987.00;4864274;29;21500;-81
2021/01/16 00:40:47;;;;;;;21.17;12.90;;;;;;;1.93;67.75;99986.28;4878269;29;20563;-81
2021/01/16 00:43:16;;;;;;;21.02;13.30;;;;;;;1.91;68.21;99988.09;4900969;29;20309;-82
2021/01/16 00:45:47;;;;;;;20.75;12.73;;;;;;;1.83;68.48;99982.06;4896478;29;20325;-82
2021/01/16 00:48:16;;;;;;;17.80;12.57;;;;;;;1.88;68.24;99989.94;4875266;29;20227;-81
2021/01/16 00:50:45;;;;;;;23.15;14.20;;;;;;;1.86;68.65;99994.41;4875529;29;20227;-82
2021/01/16 00:53:14;;;;;;;22.67;14.02;;;;;;;1.91;69.07;99995.16;4866351;29;20195;-82
2021/01/16 00:55:51;;;;;;;24.15;13.45;;;;;;;1.93;68.72;99996.91;4862523;29;20230;-82
2021/01/16 00:58:19;;;;;;;21.55;13.30;;;;;;;1.91;68.29;99993.41;4863678;29;20647;-81
2021/01/16 01:00:51;;;;;;;19.70;12.75;;;;;;;1.82;68.75;100003.28;4878348;29;20234;-82
2021/01/16 01:03:23;;;;;;;18.80;11.98;;;;;;;1.86;68.64;99997.06;4863389;29;20231;-82
2021/01/16 01:05:50;;;;;;;22.85;12.35;;;;;;;1.80;68.53;99999.81;4889110;29;20239;-81
2021/01/16 01:08:16;;;;;;;21.40;13.45;;;;;;;1.63;69.18;100000.09;4877314;29;20191;-82
2021/01/16 01:10:46;;;;;;;24.48;13.05;;;;;;;1.83;68.97;100003.28;4877659;29;20927;-79
2021/01/16 01:13:14;;;;;;;23.92;13.68;;;;;;;1.94;68.29;99996.00;4886832;29;20261;-80
2021/01/16 01:15:40;;;;;;;20.45;13.18;;;;;;;1.94;68.62;99998.63;4891586;29;20231;-81
2021/01/16 01:18:08;;;;;;;23.38;13.25;;;;;;;1.94;67.55;99993.34;4870461;29;20214;-80
2021/01/16 01:20:35;;;;;;;19.75;12.15;;;;;;;1.74;68.37;99990.16;4888639;29;20248;-80
2021/01/16 01:23:01;;;;;;;23.70;12.45;;;;;;;1.70;68.64;99980.53;4892828;29;20342;-83
2021/01/16 01:25:29;;;;;;;20.70;13.52;;;;;;;1.57;69.21;99981.63;4906681;29;20245;-82
2021/01/16 01:27:57;;;;;;;19.35;12.65;;;;;;;1.49;69.89;99982.66;4878464;29;20246;-83
2021/01/16 01:30:27;;;;;;;22.25;14.00;;;;;;;1.37;69.83;99988.13;4905693;29;20265;-86
2021/01/16 01:32:54;;;;;;;22.52;13.80;;;;;;;1.49;69.70;99983.50;4903995;29;20229;-84
2021/01/16 01:35:22;;;;;;;21.70;12.90;;;;;;;1.72;69.23;99989.31;4896135;29;20231;-83
2021/01/16 01:37:53;;;;;;;20.42;12.55;;;;;;;1.73;68.86;99993.72;4879794;29;20199;-81
2021/01/16 01:40:22;;;;;;;21.42;13.68;;;;;;;1.70;68.33;99999.09;4875277;29;20227;-83
2021/01/16 01:42:50;;;;;;;20.00;13.40;;;;;;;1.60;68.60;99991.31;4876598;29;20238;-81
2021/01/16 01:45:17;;;;;;;22.63;12.70;;;;;;;1.70;68.29;99987.59;4876055;29;20282;-83
2021/01/16 01:47:44;;;;;;;21.35;13.50;;;;;;;1.66;68.41;99992.06;4880566;29;20724;-82
2021/01/16 01:50:14;;;;;;;20.17;12.43;;;;;;;1.64;68.04;99991.22;4878177;29;20367;-83
2021/01/16 01:53:11;;;;;;;23.23;14.30;;;;;;;1.61;68.92;99988.59;4855067;29;20242;-83
2021/01/16 01:55:38;;;;;;;23.20;13.60;;;;;;;1.58;68.82;99993.09;4875554;29;20258;-82
2021/01/16 01:58:17;;;;;;;20.90;12.50;;;;;;;1.47;69.19;99987.06;4879488;29;20290;-84
2021/01/16 02:00:46;;;;;;;23.45;13.23;;;;;;;1.47;69.34;99992.38;4897767;29;20238;-83
2021/01/16 02:03:13;;;;;;;25.73;14.40;;;;;;;1.41;69.44;99995.16;4866309;29;20235;-82
2021/01/16 02:05:41;;;;;;;21.52;12.15;;;;;;;1.36;70.17;99987.25;4866278;29;20234;-82
2021/01/16 02:08:07;;;;;;;20.73;13.60;;;;;;;1.31;70.27;99986.47;4866491;29;20203;-81
2021/01/16 02:10:34;;;;;;;23.65;13.55;;;;;;;1.31;70.43;99989.13;4868291;29;20246;-83
2021/01/16 02:13:00;;;;;;;23.50;13.52;;;;;;;1.35;70.25;99988.16;4862373;29;20772;-82
2021/01/16 02:15:41;;;;;;;19.67;12.52;;;;;;;1.33;70.35;99992.59;4897137;29;20228;-81
2021/01/16 02:18:19;;;;;;;20.30;13.20;;;;;;;1.26;70.14;99988.31;4891487;29;20249;-82
2021/01/16 02:20:46;;;;;;;23.75;14.55;;;;;;;1.31;70.25;99991.75;4865636;29;20290;-81
2021/01/16 02:23:28;;;;;;;20.33;12.32;;;;;;;1.34;69.73;99982.88;4887037;29;20223;-82
2021/01/16 02:26:13;;;;;;;20.98;13.32;;;;;;;1.24;70.03;99987.44;4882032;29;20282;-82
2021/01/16 02:28:49;;;;;;;22.67;13.80;;;;;;;1.16;70.43;99977.88;4873838;29;20260;-82
2021/01/16 02:31:16;;;;;;;26.83;14.35;;;;;;;1.16;70.64;99980.53;4860552;29;20258;-80
2021/01/16 02:33:45;;;;;;;24.02;14.45;;;;;;;1.12;70.96;99982.34;4874947;29;20241;-82
2021/01/16 02:36:25;;;;;;;22.52;13.32;;;;;;;1.06;71.65;99986.84;4862482;29;20310;-82
2021/01/16 02:39:14;;;;;;;24.90;13.55;;;;;;;0.97;71.53;99986.97;4860085;29;20258;-82
2021/01/16 02:42:11;;;;;;;24.63;12.55;;;;;;;0.91;72.12;99979.97;4895650;29;20318;-82
2021/01/16 02:44:37;;;;;;;22.35;12.48;;;;;;;0.90;72.03;99978.22;4883117;29;20223;-84
2021/01/16 02:47:22;;;;;;;23.23;13.88;;;;;;;0.85;72.18;99982.69;4875194;29;20226;-81
2021/01/16 02:49:58;;;;;;;23.48;14.38;;;;;;;0.79;72.60;99984.56;4863200;29;20676;-82
2021/01/16 02:52:44;;;;;;;18.75;13.80;;;;;;;0.70;72.87;99984.69;4874906;29;20308;-81
2021/01/16 02:55:11;;;;;;;22.27;13.07;;;;;;;0.65;72.78;99979.44;4879388;29;20289;-82
2021/01/16 02:57:37;;;;;;;23.40;13.40;;;;;;;0.64;73.07;99977.69;4869784;29;20226;-83
2021/01/16 03:00:10;;;;;;;25.48;14.27;;;;;;;0.60;73.53;99983.91;4862421;29;20321;-81
2021/01/16 03:02:36;;;;;;;22.45;13.30;;;;;;;0.58;73.70;99977.78;4887868;29;20215;-82
2021/01/16 03:05:04;;;;;;;20.95;13.70;;;;;;;0.47;73.91;99982.31;4861812;29;20251;-81
2021/01/16 03:07:32;;;;;;;24.25;13.98;;;;;;;0.41;74.06;99984.19;4873385;29;20272;-81
2021/01/16 03:10:05;;;;;;;23.02;13.43;;;;;;;0.36;74.06;99978.94;4858158;29;20612;-81
2021/01/16 03:12:31;;;;;;;20.15;11.82;;;;;;;0.27;74.29;99992.25;4890081;29;20233;-81
2021/01/16 03:15:02;;;;;;;23.05;13.60;;;;;;;0.20;74.55;99993.22;4851639;29;20231;-81
2021/01/16 03:17:46;;;;;;;26.65;13.15;;;;;;;0.01;74.88;99989.00;4867124;29;20687;-82
2021/01/16 03:20:20;;;;;;;22.85;13.05;;;;;;;0.04;75.06;99994.28;4875395;29;20654;-82
2021/01/16 03:22:49;;;;;;;20.48;13.25;;;;;;;0.03;75.11;99986.34;4867420;29;20262;-82
2021/01/16 03:25:20;;;;;;;20.08;12.68;;;;;;;0.01;75.20;99994.28;4885427;29;20238;-82
2021/01/16 03:27:47;;;;;;;22.13;13.48;;;;;;;-0.02;75.32;99993.44;4857534;29;20235;-82
2021/01/16 03:30:14;;;;;;;23.08;14.10;;;;;;;-0.02;75.24;99998.75;4860359;29;20244;-82
2021/01/16 03:32:41;;;;;;;24.63;13.15;;;;;;;-0.11;75.34;99989.13;4876985;29;20310;-82
2021/01/16 03:35:09;;;;;;;23.38;13.20;;;;;;;-0.13;75.45;99994.47;4881577;29;20231;-83
2021/01/16 03:37:35;;;;;;;23.20;13.18;;;;;;;-0.14;75.66;99990.06;4869449;29;20223;-82
2021/01/16 03:40:04;;;;;;;19.65;12.80;;;;;;;-0.09;75.41;99990.91;4875796;29;20229;-82
2021/01/16 03:42:30;;;;;;;18.60;12.05;;;;;;;-0.10;75.42;99990.03;4908769;29;20236;-82
2021/01/16 03:44:56;;;;;;;22.77;14.23;;;;;;;-0.12;75.29;99992.66;4873948;29;20229;-82
2021/01/16 03:47:31;;;;;;;21.50;13.30;;;;;;;-0.11;75.20;99989.13;4846924;28;20217;-82
2021/01/16 03:49:57;;;;;;;23.70;13.25;;;;;;;-0.08;74.88;99987.38;4877365;29;20286;-80
2021/01/16 03:52:29;;;;;;;22.48;12.35;;;;;;;-0.14;75.32;99987.44;4864190;29;20219;-81
2021/01/16 03:54:56;;;;;;;21.02;12.45;;;;;;;-0.16;75.41;99984.78;4857263;29;20245;-82
2021/01/16 03:57:23;;;;;;;24.02;13.32;;;;;;;-0.17;75.40;99986.53;4882042;29;20226;-82
2021/01/16 03:59:50;;;;;;;19.55;13.60;;;;;;;-0.23;75.57;99987.50;4880642;29;20325;-81
2021/01/16 04:02:17;;;;;;;24.92;14.05;;;;;;;-0.22;75.51;99989.25;4865094;29;20721;-82
2021/01/16 04:04:44;;;;;;;20.17;12.35;;;;;;;-0.26;75.72;99995.47;4933334;23;20226;-84
2021/01/16 04:07:10;;;;;;;25.77;14.35;;;;;;;-0.22;75.50;99998.06;4908168;29;20244;-83
2021/01/16 04:09:37;;;;;;;21.67;12.98;;;;;;;-0.16;75.35;99990.06;4894253;29;20221;-84
2021/01/16 04:12:04;;;;;;;20.73;13.00;;;;;;;-0.21;75.73;99993.66;4883663;29;20219;-85
2021/01/16 04:14:30;;;;;;;23.70;13.90;;;;;;;-0.28;76.07;99989.31;4878542;29;20203;-86
2021/01/16 04:16:58;;;;;;;25.45;13.23;;;;;;;-0.27;75.52;99991.94;4908254;29;20258;-87
2021/01/16 04:19:24;;;;;;;25.60;13.63;;;;;;;-0.30;75.55;99991.09;4907625;29;20718;-87
2021/01/16 04:21:51;;;;;;;25.38;13.13;;;;;;;-0.28;75.73;99991.97;4902042;29;20227;-87
2021/01/16 04:24:17;;;;;;;20.60;13.13;;;;;;;-0.38;75.91;99998.22;4893472;29;20237;-86
2021/01/16 04:26:44;;;;;;;22.73;12.40;;;;;;;-0.45;76.13;99992.06;4899156;29;20235;-87
2021/01/16 04:29:11;;;;;;;24.67;13.93;;;;;;;-0.49;76.50;99994.78;4885761;29;20232;-86
2021/01/16 04:31:38;;;;;;;24.98;14.45;;;;;;;-0.37;75.96;99992.03;4898959;29;20233;-86
2021/01/16 04:34:05;;;;;;;22.23;13.57;;;;;;;-0.26;75.94;99990.19;4888401;29;20245;-85
2021/01/16 04:36:31;;;;;;;22.90;14.18;;;;;;;-0.23;75.52;99992.78;4902937;29;20211;-84
2021/01/16 04:38:58;;;;;;;25.23;13.38;;;;;;;-0.23;75.16;99987.50;4903368;29;20226;-85
2021/01/16 04:41:27;;;;;;;23.33;14.43;;;;;;;-0.20;75.23;99992.75;4902264;29;20178;-84
2021/01/16 04:43:54;;;;;;;22.60;14.02;;;;;;;-0.23;75.28;99992.78;4905008;29;20215;-84
2021/01/16 04:46:21;;;;;;;23.33;14.48;;;;;;;-0.12;74.74;99992.66;4898878;29;20210;-84
2021/01/16 04:48:57;;;;;;;22.77;13.90;;;;;;;-0.12;74.52;99994.44;4894976;28;20299;-84
2021/01/16 04:51:24;;;;;;;22.48;13.82;;;;;;;-0.14;74.62;100008.56;4890915;29;20232;-86
2021/01/16 04:53:52;;;;;;;21.42;13.90;;;;;;;-0.13;74.21;99999.75;4903668;29;20223;-86
2021/01/16 04:56:19;;;;;;;22.13;14.10;;;;;;;-0.08;74.02;99997.94;4879242;29;20234;-85
2021/01/16 04:58:46;;;;;;;22.60;13.10;;;;;;;-0.06;73.88;100003.19;4858447;29;20223;-86
2021/01/16 05:01:12;;;;;;;22.70;13.60;;;;;;;-0.06;73.56;99992.59;4891630;29;20321;-84
2021/01/16 05:03:43;;;;;;;25.10;13.82;;;;;;;-0.09;73.87;99999.69;4890810;29;20227;-87
2021/01/16 05:06:13;;;;;;;22.55;12.82;;;;;;;-0.08;73.78;99992.66;4881189;29;20776;-87
2021/01/16 05:08:42;;;;;;;21.77;13.40;;;;;;;-0.03;73.58;99995.25;4880908;29;20322;-86
2021/01/16 05:11:16;;;;;;;21.17;13.73;;;;;;;0.13;72.50;99994.19;4905096;29;20209;-83
2021/01/16 05:13:47;;;;;;;20.40;12.18;;;;;;;0.06;72.38;99992.50;4898010;29;20214;-84
2021/01/16 05:16:14;;;;;;;21.95;12.52;;;;;;;-0.01;72.70;99996.09;4863275;29;20230;-84
2021/01/16 05:18:43;;;;;;;19.52;12.35;;;;;;;-0.06;72.92;99991.75;4892809;29;20226;-85
2021/01/16 05:21:11;;;;;;;20.55;13.25;;;;;;;-0.02;72.71;99988.16;4862379;29;20234;-84
2021/01/16 05:23:41;;;;;;;17.42;12.55;;;;;;;0.04;72.42;99982.81;4878566;29;20227;-86
2021/01/16 05:26:09;;;;;;;21.42;12.65;;;;;;;0.04;72.22;99985.47;4896604;29;20319;-87
2021/01/16 05:28:37;;;;;;;21.58;12.75;;;;;;;-0.08;72.26;99981.19;4867857;29;20223;-86
2021/01/16 05:31:07;;;;;;;24.70;12.77;;;;;;;-0.17;72.78;99971.56;4883211;29;20246;-85
2021/01/16 05:33:36;;;;;;;21.75;14.60;;;;;;;-0.07;72.70;99972.34;4884177;29;20223;-87
2021/01/16 05:36:07;;;;;;;21.08;12.65;;;;;;;0.02;72.20;99966.97;4894779;29;20232;-87
2021/01/16 05:38:38;;;;;;;22.15;13.57;;;;;;;0.06;72.50;99973.97;4884508;29;20210;-86
2021/01/16 05:41:08;;;;;;;20.92;13.07;;;;;;;0.13;72.01;99967.72;4895207;29;20196;-87
2021/01/16 05:43:35;;;;;;;20.33;13.18;;;;;;;0.18;71.82;99975.63;4877762;29;20294;-85
2021/01/16 05:46:10;;;;;;;19.75;12.18;;;;;;;0.11;71.88;99976.56;4894220;29;20235;-87
2021/01/16 05:48:37;;;;;;;19.02;11.98;;;;;;;-0.01;72.03;99974.94;4875744;29;20222;-86
2021/01/16 05:51:05;;;;;;;20.92;13.65;;;;;;;0.01;72.14;99978.44;4877839;29;20223;-87
2021/01/16 05:53:31;;;;;;;22.38;13.50;;;;;;;0.03;72.16;99981.97;4908783;29;20459;-85
2021/01/16 05:55:59;;;;;;;22.77;13.07;;;;;;;0.07;71.98;99981.03;4886758;29;20218;-86
2021/01/16 05:58:34;;;;;;;21.48;13.15;;;;;;;0.03;72.26;99974.03;4882087;29;20230;-86
2021/01/16 06:01:08;;;;;;;21.42;12.38;;;;;;;0.13;71.67;99972.16;4888678;29;20230;-86
2021/01/16 06:03:36;;;;;;;21.75;14.48;;;;;;;0.15;71.72;99970.38;4887149;29;20235;-85
2021/01/16 06:06:09;;;;;;;20.90;12.52;;;;;;;0.12;71.22;99971.28;4899744;29;20229;-84
2021/01/16 06:08:47;;;;;;;21.05;12.60;;;;;;;0.09;71.14;99968.66;4880363;29;20183;-85
2021/01/16 06:11:14;;;;;;;26.70;13.95;;;;;;;0.08;71.46;99966.91;4902356;29;20214;-83
2021/01/16 06:13:41;;;;;;;19.30;12.15;;;;;;;0.12;71.47;99971.28;4897779;29;20228;-85
2021/01/16 06:16:17;;;;;;;22.45;14.52;;;;;;;0.16;71.26;99965.06;4898413;29;20219;-84
2021/01/16 06:18:55;;;;;;;19.60;13.20;;;;;;;0.06;71.21;99970.44;4891636;29;20229;-84
2021/01/16 06:21:27;;;;;;;24.52;14.05;;;;;;;0.11;71.12;99958.94;4892196;29;20218;-86
2021/01/16 06:23:58;;;;;;;20.80;13.77;;;;;;;0.06;71.86;99963.41;4875312;29;20234;-84
2021/01/16 06:26:26;;;;;;;22.85;14.20;;;;;;;0.15;71.88;99960.66;4891123;29;20186;-84
2021/01/16 06:29:01;;;;;;;21.35;13.40;;;;;;;0.17;71.86;99969.47;4908655;29;20195;-84
2021/01/16 06:31:29;;;;;;;21.38;13.40;;;;;;;0.23;71.48;99973.78;4897690;29;20248;-85
2021/01/16 06:34:05;;;;;;;19.70;12.82;;;;;;;0.18;71.06;99975.63;4868376;29;20285;-88
2021/01/16 06:36:37;;;;;;;20.67;12.43;;;;;;;0.19;70.60;99972.97;4868931;29;20295;-88
2021/01/16 06:39:05;;;;;;;19.75;12.20;;;;;;;0.09;70.56;99971.28;4879693;29;20222;-85
2021/01/16 06:41:37;;;;;;;19.42;12.63;;;;;;;0.13;71.23;99970.38;4876498;28;20203;-85
2021/01/16 06:44:14;;;;;;;19.52;12.02;;;;;;;0.25;71.20;99975.53;4879596;29;20219;-88
2021/01/16 06:46:44;;;;;;;18.50;12.45;;;;;;;0.21;71.18;99979.09;4875748;29;20294;-85
2021/01/16 06:49:25;;;;;;;21.02;13.82;;;;;;;0.09;70.77;99970.44;4871662;29;20586;-86
2021/01/16 06:51:56;;;;;;;17.65;12.23;;;;;;;0.12;70.69;99965.09;4873104;29;20235;-86
2021/01/16 06:54:23;;;;;;;22.27;12.23;;;;;;;0.08;70.38;99973.97;4887495;29;20258;-88
2021/01/16 06:57:16;;;;;;;20.65;12.20;;;;;;;0.04;71.27;99967.84;4860199;29;20245;-87
2021/01/16 06:59:44;;;;;;;25.17;12.82;;;;;;;0.14;70.95;99968.63;4868711;29;20315;-85
2021/01/16 07:02:34;;;;;;;21.70;12.57;;;;;;;0.17;70.66;99969.47;4900357;29;20187;-85
2021/01/16 07:05:03;;;;;;;17.63;12.82;;;;;;;0.16;71.00;99959.78;4885456;29;20244;-85
2021/01/16 07:07:40;;;;;;;19.42;13.15;;;;;;;0.21;70.67;99960.59;4890243;29;20442;-85
2021/01/16 07:10:10;;;;;;;18.13;11.75;;;;;;;0.19;70.29;99962.38;4877332;28;20314;-87
2021/01/16 07:12:40;;;;;;;24.38;12.88;;;;;;;0.27;70.19;99959.66;4889230;29;20219;-85
2021/01/16 07:15:09;;;;;;;16.77;10.68;;;;;;;0.23;69.33;99963.22;4877564;29;20236;-84
2021/01/16 07:17:37;;;;;;;20.02;12.15;;;;;;;0.37;68.88;99962.19;4888392;29;20203;-87
2021/01/16 07:20:08;;;;;;;16.50;11.15;;;;;;;0.38;68.45;99963.91;4879419;29;20655;-85
2021/01/16 07:22:38;;;;;;;17.45;11.30;;;;;;;0.42;68.36;99952.41;4878137;29;20245;-86
2021/01/16 07:25:06;;;;;;;17.10;11.68;;;;;;;0.44;68.02;99955.03;4884634;29;20238;-87
2021/01/16 07:27:33;;;;;;;16.80;11.48;;;;;;;0.40;67.54;99954.19;4889118;29;20229;-88
2021/01/16 07:30:01;;;;;;;16.60;10.38;;;;;;;0.32;66.63;99950.75;4877965;29;20242;-85
2021/01/16 07:33:00;;;;;;;16.70;9.90;;;;;;;0.42;67.18;99951.53;4898823;29;20203;-87
2021/01/16 07:35:26;;;;;;;15.13;10.40;;;;;;;0.52;67.23;99958.47;4872206;29;20223;-87
2021/01/16 07:37:54;;;;;;;17.48;11.45;;;;;;;0.54;67.36;99961.97;4894992;29;20205;-86
2021/01/16 07:40:30;;;;;;;18.90;11.65;;;;;;;0.55;67.22;99955.78;4879069;29;20222;-84
2021/01/16 07:42:58;;;;;;;15.85;10.82;;;;;;;0.45;67.14;99955.00;4872378;29;20237;-86
2021/01/16 07:45:33;;;;;;;16.02;11.13;;;;;;;0.38;67.53;99953.34;4878292;29;20215;-83
2021/01/16 07:51:32;;;;;;;18.83;10.52;;;;;;;0.56;66.19;99947.81;4898746;29;20279;-85
2021/01/16 07:54:07;;;;;;;20.95;14.15;;;;;;;0.50;66.69;99953.19;4888946;29;20325;-85
2021/01/16 07:56:39;;;;;;;17.73;11.27;;;;;;;0.49;66.80;99947.91;4875372;29;20627;-85
2021/01/16 07:59:20;;;;;;;19.48;11.98;;;;;;;0.41;67.23;99955.94;4893495;29;20224;-86
2021/01/16 08:02:05;;;;;;;18.42;12.18;;;;;;;0.50;66.74;99950.53;4875671;29;20223;-86
2021/01/16 08:04:42;;;;;;;17.13;10.93;;;;;;;0.48;66.44;99948.81;4888200;29;20661;-86
2021/01/16 08:07:09;;;;;;;15.95;10.90;;;;;;;0.38;65.98;99947.16;4867848;29;20766;-86
2021/01/16 08:09:51;;;;;;;14.07;10.32;;;;;;;0.66;65.21;99954.72;4872728;29;20230;-85
2021/01/16 08:12:20;;;;;;;15.65;10.52;;;;;;;0.76;65.97;99953.72;4870831;29;20250;-86
2021/01/16 08:14:46;;;;;;;17.52;11.95;;;;;;;0.79;66.09;99956.31;4851230;29;20239;-85
2021/01/16 08:17:24;;;;;;;19.23;12.32;;;;;;;0.79;65.92;99950.16;4889173;29;20199;-85
2021/01/16 08:20:00;;;;;;;16.48;10.77;;;;;;;0.81;65.76;99951.91;4871588;29;20305;-85
2021/01/16 08:22:44;;;;;;;18.55;12.13;;;;;;;0.75;65.43;99951.09;4877775;29;20630;-86
2021/01/16 08:25:12;;;;;;;15.75;9.80;;;;;;;0.77;65.35;99950.16;4890872;29;20257;-85
2021/01/16 08:27:46;;;;;;;18.20;10.70;;;;;;;0.69;65.88;99957.34;4897496;29;20238;-85
2021/01/16 08:30:16;;;;;;;16.42;11.05;;;;;;;0.69;66.11;99952.06;4886824;29;20744;-86
2021/01/16 08:33:01;;;;;;;15.88;11.00;;;;;;;0.69;66.24;99951.16;4863499;29;20702;-85
2021/01/16 08:35:48;;;;;;;18.52;11.55;;;;;;;0.74;66.16;99949.34;4894758;29;20214;-85
2021/01/16 08:38:17;;;;;;;15.80;10.15;;;;;;;0.70;66.12;99945.88;4891117;29;20191;-86
2021/01/16 08:40:53;;;;;;;16.50;10.98;;;;;;;0.70;66.35;99950.25;4905986;29;20242;-84
2021/01/16 08:43:45;;;;;;;15.95;10.75;;;;;;;0.56;66.57;99947.81;4916364;29;20242;-85
2021/01/16 08:46:34;;;;;;;13.82;10.60;;;;;;;0.65;66.36;99946.84;4897763;29;20222;-91
2021/01/16 08:49:06;;;;;;;17.55;11.23;;;;;;;0.80;66.39;99946.63;4877461;29;20211;-84
2021/01/16 08:51:34;;;;;;;11.63;9.02;;;;;;;0.78;65.89;99949.28;4883640;29;20215;-86
2021/01/16 08:54:17;;;;;;;15.48;10.07;;;;;;;0.81;66.15;99938.66;4892254;29;20223;-83
2021/01/16 08:57:09;;;;;;;14.90;9.85;;;;;;;1.21;63.41;99934.50;4879243;29;20214;-88
2021/01/16 08:59:35;;;;;;;16.23;10.73;;;;;;;1.27;63.48;99926.47;4878662;29;20270;-84
2021/01/16 09:02:05;;;;;;;13.02;9.30;;;;;;;1.14;63.09;99927.56;4884638;29;20278;-86
2021/01/16 09:04:36;;;;;;;13.77;8.57;;;;;;;0.99;63.32;99929.56;4887390;29;20211;-89
2021/01/16 09:07:14;;;;;;;15.77;10.10;;;;;;;1.33;62.59;99931.66;4881652;29;20218;-88
2021/01/16 09:09:51;;;;;;;18.15;10.43;;;;;;;1.44;62.34;99936.78;4886965;29;20210;-88
2021/01/16 09:12:22;;;;;;;10.95;6.97;;;;;;;1.34;61.47;99928.13;4894720;29;20241;-87
2021/01/16 09:15:20;;;;;;;9.50;8.02;;;;;;;1.13;61.60;99930.22;4873481;29;20238;-85
2021/01/16 09:18:02;;;;;;;10.98;8.02;;;;;;;1.37;61.25;99932.50;4901208;29;20230;-83
2021/01/16 09:20:33;;;;;;;10.93;7.90;;;;;;;1.43;60.82;99932.41;4891483;29;20210;-82
2021/01/16 09:23:18;;;;;;;14.23;8.38;;;;;;;1.43;60.55;99932.41;4899145;29;20214;-83
2021/01/16 09:25:46;;;;;;;11.40;7.78;;;;;;;1.42;60.94;99923.56;4900386;29;20238;-93
2021/01/16 09:28:16;;;;;;;8.77;7.03;;;;;;;1.37;61.04;99917.44;4878872;29;20214;-90
2021/01/16 09:30:44;;;;;;;10.35;7.57;;;;;;;1.16;61.59;99915.16;4937294;23;20295;-88
2021/01/16 09:33:20;;;;;;;10.57;7.55;;;;;;;0.98;62.61;99920.72;4918863;29;20206;-87
2021/01/16 09:35:47;;;;;;;14.07;9.38;;;;;;;1.05;62.87;99922.38;4907422;29;20242;-86
2021/01/16 09:38:15;;;;;;;15.55;10.15;;;;;;;1.33;63.18;99913.13;4918027;29;20225;-86
2021/01/16 09:40:42;;;;;;;13.02;9.13;;;;;;;1.35;62.41;99911.31;4884223;29;20237;-87
2021/01/16 09:43:18;;;;;;;12.70;9.45;;;;;;;1.36;62.80;99912.19;4885593;28;20330;-84
2021/01/16 09:45:55;;;;;;;15.75;8.35;;;;;;;1.26;62.27;99921.19;4906787;29;20238;-90
2021/01/16 09:48:33;;;;;;;12.90;9.68;;;;;;;1.32;62.24;99921.97;4883389;29;20264;-86
2021/01/16 09:51:02;;;;;;;11.02;7.60;;;;;;;1.18;62.10;99923.97;4888305;29;20229;-87
2021/01/16 09:53:29;;;;;;;13.88;9.43;;;;;;;1.43;61.87;99912.06;4894848;29;20218;-88
2021/01/16 09:55:56;;;;;;;9.27;6.22;;;;;;;1.40;59.85;99909.47;4887745;29;20222;-85
2021/01/16 09:58:40;;;;;;;38.33;19.50;;;;;;;1.41;60.82;99907.72;4889196;29;20222;-86
2021/01/16 10:01:27;;;;;;;10.40;7.75;;;;;;;1.45;60.52;99899.69;4917404;29;20218;-91
2021/01/16 10:04:02;;;;;;;8.65;6.05;;;;;;;1.45;60.07;99894.38;4903311;29;20281;-88
2021/01/16 10:06:34;;;;;;;9.75;7.47;;;;;;;1.77;59.17;99896.44;4912948;29;20226;-85
2021/01/16 10:09:17;;;;;;;9.65;6.97;;;;;;;1.66;59.15;99894.00;4900826;29;20303;-89
2021/01/16 10:11:45;;;;;;;7.13;5.57;;;;;;;1.74;58.50;99886.75;4918561;29;20265;-87
2021/01/16 10:14:13;;;;;;;11.23;8.85;;;;;;;1.77;58.83;99894.69;4916208;29;20209;-86
2021/01/16 10:16:45;;;;;;;12.40;7.40;;;;;;;1.95;58.15;99886.38;4902235;29;20222;-85
2021/01/16 10:19:14;;;;;;;11.15;8.20;;;;;;;2.12;57.58;99886.03;4913234;29;20234;-90
2021/01/16 10:21:54;;;;;;;10.43;7.13;;;;;;;1.91;57.84;99882.03;4888661;29;20233;-89
2021/01/16 10:24:21;;;;;;;11.43;7.57;;;;;;;1.80;57.28;99886.66;4913488;29;20225;-83
2021/01/16 10:26:47;;;;;;;13.63;8.25;;;;;;;1.77;58.20;99884.06;4911360;29;20252;-83
2021/01/16 10:29:36;;;;;;;11.30;7.45;;;;;;;1.70;58.61;99879.78;4918143;29;20194;-83
2021/01/16 10:33:05;;;;;;;11.80;7.10;;;;;;;1.71;58.75;99878.88;4913380;29;20234;-84
2021/01/16 10:35:32;;;;;;;7.35;6.40;;;;;;;2.07;57.24;99877.31;4914113;29;20241;-83
2021/01/16 10:38:00;;;;;;;8.20;6.03;;;;;;;2.22;56.32;99874.31;4897907;29;20732;-84
2021/01/16 10:40:29;;;;;;;8.75;6.70;;;;;;;2.12;56.76;99873.63;4880436;29;20233;-84
2021/01/16 10:42:58;;;;;;;13.63;10.32;;;;;;;2.00;57.21;99873.88;4891636;29;20229;-82
2021/01/16 10:45:32;;;;;;;9.45;6.72;;;;;;;1.97;56.98;99866.00;4880144;29;20298;-84
2021/01/16 10:48:18;;;;;;;8.18;6.38;;;;;;;1.71;56.92;99868.28;4885670;29;20285;-87
2021/01/16 10:50:45;;;;;;;9.20;6.60;;;;;;;1.88;56.66;99858.19;4894279;29;20231;-83
2021/01/16 10:53:11;;;;;;;10.00;7.18;;;;;;;1.85;57.20;99852.97;4875264;29;20263;-83
2021/01/16 10:55:54;;;;;;;13.70;7.88;;;;;;;1.71;57.44;99844.41;4896717;29;20234;-85
2021/01/16 10:58:25;;;;;;;9.00;7.22;;;;;;;1.80;57.58;99841.56;4899447;29;20226;-86
2021/01/16 11:00:57;;;;;;;12.82;7.45;;;;;;;1.91;56.57;99836.06;4899573;29;20222;-85
2021/01/16 11:03:26;;;;;;;8.25;6.50;;;;;;;2.12;56.29;99833.00;4902155;29;20241;-84
2021/01/16 11:06:03;;;;;;;9.00;6.50;;;;;;;2.16;55.53;99830.25;4889155;29;20244;-84
2021/01/16 11:08:34;;;;;;;8.18;6.10;;;;;;;2.08;55.63;99826.00;4909830;29;22738;-86
2021/01/16 11:11:01;;;;;;;8.65;6.35;;;;;;;1.81;57.69;99831.88;4892716;29;20273;-88
2021/01/16 11:13:29;;;;;;;8.23;6.43;;;;;;;1.92;57.13;99825.44;4881920;29;20671;-87
2021/01/16 11:16:19;;;;;;;10.52;7.40;;;;;;;2.11;55.75;99816.19;4877162;29;20710;-88
2021/01/16 11:18:50;;;;;;;11.10;7.85;;;;;;;1.97;57.74;99826.22;4901712;29;20230;-88
2021/01/16 11:21:34;;;;;;;11.77;8.77;;;;;;;1.86;58.83;99814.09;4884598;29;20231;-83
2021/01/16 11:24:34;;;;;;;11.75;8.70;;;;;;;1.93;59.23;99819.22;4890890;29;20226;-83
2021/01/16 11:27:08;;;;;;;13.63;8.85;;;;;;;1.70;59.67;99820.59;4910867;29;20254;-84
2021/01/16 11:29:41;;;;;;;14.45;9.68;;;;;;;1.78;60.19;99816.00;4893525;29;20712;-84
2021/01/16 11:32:16;;;;;;;12.15;8.60;;;;;;;1.61;60.63;99813.69;4896988;29;20225;-83
2021/01/16 11:35:02;;;;;;;14.00;9.82;;;;;;;1.39;60.88;99812.34;4878171;29;20230;-82
2021/01/16 11:37:51;;;;;;;14.80;9.55;;;;;;;1.75;60.59;99795.72;4893310;29;20600;-83
2021/01/16 11:40:24;;;;;;;13.10;9.80;;;;;;;1.83;59.30;99791.16;4896012;29;20705;-83
2021/01/16 11:43:08;;;;;;;14.00;9.05;;;;;;;2.05;58.35;99781.84;4893529;29;20234;-83
2021/01/16 11:45:37;;;;;;;10.25;7.65;;;;;;;1.73;58.16;99786.94;4893365;29;20301;-84
2021/01/16 11:48:06;;;;;;;11.00;7.53;;;;;;;1.68;58.41;99786.16;4880693;29;20218;-84
2021/01/16 11:50:35;;;;;;;10.63;7.55;;;;;;;1.40;59.17;99790.25;4879502;29;20208;-85
2021/01/16 11:53:12;;;;;;;13.55;8.90;;;;;;;1.72;58.58;99779.88;4911728;29;20198;-81